sensor_id;sensor_type;location;lat;lon;timestamp;temperature;humidity
16966;DHT22;8599;47.852;12.070;2023-12-07T00:01:41;2.60;99.90
16966;DHT22;8599;47.852;12.070;2023-12-07T00:04:08;2.60;99.90
16966;DHT22;8599;47.852;12.070;2023-12-07T00:06:34;2.60;99.90
16966;DHT22;8599;47.852;12.070;2023-12-07T00:09:03;2.50;99.90
16966;DHT22;8599;47.852;12.070;2023-12-07T00:11:30;2.50;99.90
16966;DHT22;8599;47.852;12.070;2023-12-07T00:13:57;2.50;99.90
16966;DHT22;8599;47.852;12.070;2023-12-07T00:16:24;2.50;99.90
16966;DHT22;8599;47.852;12.070;2023-12-07T00:18:51;2.50;99.90
16966;DHT22;8599;47.852;12.070;2023-12-07T00:21:17;2.50;99.90
16966;DHT22;8599;47.852;12.070;2023-12-07T00:23:44;2.50;99.90
16966;DHT22;8599;47.852;12.070;2023-12-07T00:26:12;2.60;99.90
16966;DHT22;8599;47.852;12.070;2023-12-07T00:28:39;2.60;99.90
16966;DHT22;8599;47.852;12.070;2023-12-07T00:31:06;2.60;99.90
16966;DHT22;8599;47.852;12.070;2023-12-07T00:33:33;2.60;99.90
16966;DHT22;8599;47.852;12.070;2023-12-07T00:36:00;2.50;99.90
16966;DHT22;8599;47.852;12.070;2023-12-07T00:38:27;2.50;99.90
16966;DHT22;8599;47.852;12.070;2023-12-07T00:40:57;2.50;99.90
16966;DHT22;8599;47.852;12.070;2023-12-07T00:43:26;2.50;99.90
16966;DHT22;8599;47.852;12.070;2023-12-07T00:45:52;2.50;99.90
16966;DHT22;8599;47.852;12.070;2023-12-07T00:48:19;2.50;99.90
16966;DHT22;8599;47.852;12.070;2023-12-07T00:50:46;2.50;99.90
16966;DHT22;8599;47.852;12.070;2023-12-07T00:53:13;2.50;99.90
16966;DHT22;8599;47.852;12.070;2023-12-07T00:55:40;2.50;99.90
16966;DHT22;8599;47.852;12.070;2023-12-07T00:58:07;2.40;99.90
16966;DHT22;8599;47.852;12.070;2023-12-07T01:00:35;2.40;99.90
16966;DHT22;8599;47.852;12.070;2023-12-07T01:03:02;2.40;99.90
16966;DHT22;8599;47.852;12.070;2023-12-07T01:05:29;2.40;99.90
16966;DHT22;8599;47.852;12.070;2023-12-07T01:07:55;2.40;99.90
16966;DHT22;8599;47.852;12.070;2023-12-07T01:10:22;2.40;99.90
16966;DHT22;8599;47.852;12.070;2023-12-07T01:12:49;2.40;99.90
16966;DHT22;8599;47.852;12.070;2023-12-07T01:15:16;2.40;99.90
16966;DHT22;8599;47.852;12.070;2023-12-07T01:17:44;2.40;99.90
16966;DHT22;8599;47.852;12.070;2023-12-07T01:20:11;2.40;99.90
16966;DHT22;8599;47.852;12.070;2023-12-07T01:22:39;2.40;99.90
16966;DHT22;8599;47.852;12.070;2023-12-07T01:25:07;2.40;99.90
16966;DHT22;8599;47.852;12.070;2023-12-07T01:27:33;2.40;99.90
16966;DHT22;8599;47.852;12.070;2023-12-07T01:30:01;2.40;99.90
16966;DHT22;8599;47.852;12.070;2023-12-07T01:32:29;2.40;99.90
16966;DHT22;8599;47.852;12.070;2023-12-07T01:34:57;2.40;99.90
16966;DHT22;8599;47.852;12.070;2023-12-07T01:37:24;2.40;99.90
16966;DHT22;8599;47.852;12.070;2023-12-07T01:39:50;2.40;99.90
16966;DHT22;8599;47.852;12.070;2023-12-07T01:42:17;2.40;99.90
16966;DHT22;8599;47.852;12.070;2023-12-07T01:44:44;2.40;99.90
16966;DHT22;8599;47.852;12.070;2023-12-07T01:47:11;2.40;99.90
16966;DHT22;8599;47.852;12.070;2023-12-07T01:49:39;2.40;99.90
16966;DHT22;8599;47.852;12.070;2023-12-07T01:52:09;2.40;99.90
16966;DHT22;8599;47.852;12.070;2023-12-07T01:54:37;2.40;99.90
16966;DHT22;8599;47.852;12.070;2023-12-07T01:57:04;2.30;99.90
16966;DHT22;8599;47.852;12.070;2023-12-07T01:59:32;2.30;99.90
16966;DHT22;8599;47.852;12.070;2023-12-07T02:02:00;2.30;99.90
16966;DHT22;8599;47.852;12.070;2023-12-07T02:04:26;2.30;99.90
16966;DHT22;8599;47.852;12.070;2023-12-07T02:06:54;2.20;99.90
16966;DHT22;8599;47.852;12.070;2023-12-07T02:09:25;2.20;99.90
16966;DHT22;8599;47.852;12.070;2023-12-07T02:11:51;2.20;99.90
16966;DHT22;8599;47.852;12.070;2023-12-07T02:14:19;2.20;99.90
16966;DHT22;8599;47.852;12.070;2023-12-07T02:16:50;2.20;99.90
16966;DHT22;8599;47.852;12.070;2023-12-07T02:19:35;2.30;99.90
16966;DHT22;8599;47.852;12.070;2023-12-07T02:22:12;2.30;99.90
16966;DHT22;8599;47.852;12.070;2023-12-07T02:24:48;2.30;99.90
16966;DHT22;8599;47.852;12.070;2023-12-07T02:27:34;2.30;99.90
16966;DHT22;8599;47.852;12.070;2023-12-07T02:30:01;2.30;99.90
16966;DHT22;8599;47.852;12.070;2023-12-07T02:32:28;2.30;99.90
16966;DHT22;8599;47.852;12.070;2023-12-07T02:34:55;2.30;99.90
16966;DHT22;8599;47.852;12.070;2023-12-07T02:37:22;2.30;99.90
16966;DHT22;8599;47.852;12.070;2023-12-07T02:39:51;2.20;99.90
16966;DHT22;8599;47.852;12.070;2023-12-07T02:42:19;2.20;99.90
16966;DHT22;8599;47.852;12.070;2023-12-07T02:44:52;2.30;99.90
16966;DHT22;8599;47.852;12.070;2023-12-07T02:47:19;2.20;99.90
16966;DHT22;8599;47.852;12.070;2023-12-07T02:49:46;2.20;99.90
16966;DHT22;8599;47.852;12.070;2023-12-07T02:52:13;2.20;99.90
16966;DHT22;8599;47.852;12.070;2023-12-07T02:54:40;2.20;99.90
16966;DHT22;8599;47.852;12.070;2023-12-07T02:57:07;2.20;99.90
16966;DHT22;8599;47.852;12.070;2023-12-07T02:59:34;2.20;99.90
16966;DHT22;8599;47.852;12.070;2023-12-07T03:02:03;2.20;99.90
16966;DHT22;8599;47.852;12.070;2023-12-07T03:04:29;2.20;99.90
16966;DHT22;8599;47.852;12.070;2023-12-07T03:06:56;2.20;99.90
16966;DHT22;8599;47.852;12.070;2023-12-07T03:09:23;2.30;99.90
16966;DHT22;8599;47.852;12.070;2023-12-07T03:11:50;2.20;99.90
16966;DHT22;8599;47.852;12.070;2023-12-07T03:14:17;2.20;99.90
16966;DHT22;8599;47.852;12.070;2023-12-07T03:16:45;2.20;99.90
16966;DHT22;8599;47.852;12.070;2023-12-07T03:19:13;2.20;99.90
16966;DHT22;8599;47.852;12.070;2023-12-07T03:21:40;2.20;99.90
16966;DHT22;8599;47.852;12.070;2023-12-07T03:24:07;2.20;99.90
16966;DHT22;8599;47.852;12.070;2023-12-07T03:26:34;2.20;99.90
16966;DHT22;8599;47.852;12.070;2023-12-07T03:29:01;2.20;99.90
16966;DHT22;8599;47.852;12.070;2023-12-07T03:31:28;2.20;99.90
16966;DHT22;8599;47.852;12.070;2023-12-07T03:33:56;2.20;99.90
16966;DHT22;8599;47.852;12.070;2023-12-07T03:36:24;2.20;99.90
16966;DHT22;8599;47.852;12.070;2023-12-07T03:38:50;2.20;99.90
16966;DHT22;8599;47.852;12.070;2023-12-07T03:41:17;2.10;99.90
16966;DHT22;8599;47.852;12.070;2023-12-07T03:43:44;2.10;99.90
16966;DHT22;8599;47.852;12.070;2023-12-07T03:46:11;2.20;99.90
16966;DHT22;8599;47.852;12.070;2023-12-07T03:48:38;2.20;99.90
16966;DHT22;8599;47.852;12.070;2023-12-07T03:51:04;2.20;99.90
16966;DHT22;8599;47.852;12.070;2023-12-07T03:53:33;2.10;99.90
16966;DHT22;8599;47.852;12.070;2023-12-07T03:56:00;2.20;99.90
16966;DHT22;8599;47.852;12.070;2023-12-07T03:58:27;2.20;99.90
16966;DHT22;8599;47.852;12.070;2023-12-07T04:00:53;2.10;99.90
16966;DHT22;8599;47.852;12.070;2023-12-07T04:03:20;2.10;99.90
16966;DHT22;8599;47.852;12.070;2023-12-07T04:05:47;2.10;99.90
16966;DHT22;8599;47.852;12.070;2023-12-07T04:08:14;2.10;99.90
16966;DHT22;8599;47.852;12.070;2023-12-07T04:10:42;2.10;99.90
16966;DHT22;8599;47.852;12.070;2023-12-07T04:13:09;2.10;99.90
16966;DHT22;8599;47.852;12.070;2023-12-07T04:15:36;2.10;99.90
16966;DHT22;8599;47.852;12.070;2023-12-07T04:18:03;2.10;99.90
16966;DHT22;8599;47.852;12.070;2023-12-07T04:20:30;2.10;99.90
16966;DHT22;8599;47.852;12.070;2023-12-07T04:22:57;2.10;99.90
16966;DHT22;8599;47.852;12.070;2023-12-07T04:25:23;2.10;99.90
16966;DHT22;8599;47.852;12.070;2023-12-07T04:27:52;2.10;99.90
16966;DHT22;8599;47.852;12.070;2023-12-07T04:30:19;2.10;99.90
16966;DHT22;8599;47.852;12.070;2023-12-07T04:32:46;2.10;99.90
16966;DHT22;8599;47.852;12.070;2023-12-07T04:35:13;2.10;99.90
16966;DHT22;8599;47.852;12.070;2023-12-07T04:37:39;2.10;99.90
16966;DHT22;8599;47.852;12.070;2023-12-07T04:40:07;2.10;99.90
16966;DHT22;8599;47.852;12.070;2023-12-07T04:42:35;2.10;99.90
16966;DHT22;8599;47.852;12.070;2023-12-07T04:45:05;2.10;99.90
16966;DHT22;8599;47.852;12.070;2023-12-07T04:47:32;2.10;99.90
16966;DHT22;8599;47.852;12.070;2023-12-07T04:49:59;2.10;99.90
16966;DHT22;8599;47.852;12.070;2023-12-07T04:52:26;2.10;99.90
16966;DHT22;8599;47.852;12.070;2023-12-07T04:54:53;2.10;99.90
16966;DHT22;8599;47.852;12.070;2023-12-07T04:57:20;2.10;99.90
16966;DHT22;8599;47.852;12.070;2023-12-07T04:59:47;2.10;99.90
16966;DHT22;8599;47.852;12.070;2023-12-07T05:02:15;2.10;99.90
16966;DHT22;8599;47.852;12.070;2023-12-07T05:04:42;2.10;99.90
16966;DHT22;8599;47.852;12.070;2023-12-07T05:07:09;2.00;99.90
16966;DHT22;8599;47.852;12.070;2023-12-07T05:09:36;2.00;99.90
16966;DHT22;8599;47.852;12.070;2023-12-07T05:12:04;2.00;99.90
16966;DHT22;8599;47.852;12.070;2023-12-07T05:14:31;2.00;99.90
16966;DHT22;8599;47.852;12.070;2023-12-07T05:16:58;2.00;99.90
16966;DHT22;8599;47.852;12.070;2023-12-07T05:19:26;2.00;99.90
16966;DHT22;8599;47.852;12.070;2023-12-07T05:21:53;2.00;99.90
16966;DHT22;8599;47.852;12.070;2023-12-07T05:24:21;2.00;99.90
16966;DHT22;8599;47.852;12.070;2023-12-07T05:26:48;2.00;99.90
16966;DHT22;8599;47.852;12.070;2023-12-07T05:29:15;1.90;99.90
16966;DHT22;8599;47.852;12.070;2023-12-07T05:31:42;1.90;99.90
16966;DHT22;8599;47.852;12.070;2023-12-07T05:34:09;1.90;99.90
16966;DHT22;8599;47.852;12.070;2023-12-07T05:36:37;1.90;99.90
16966;DHT22;8599;47.852;12.070;2023-12-07T05:39:04;2.00;99.90
16966;DHT22;8599;47.852;12.070;2023-12-07T05:41:32;2.00;99.90
16966;DHT22;8599;47.852;12.070;2023-12-07T05:43:59;2.00;99.90
16966;DHT22;8599;47.852;12.070;2023-12-07T05:46:26;1.90;99.90
16966;DHT22;8599;47.852;12.070;2023-12-07T05:48:53;1.90;99.90
16966;DHT22;8599;47.852;12.070;2023-12-07T05:51:20;1.90;99.90
16966;DHT22;8599;47.852;12.070;2023-12-07T05:53:48;2.00;99.90
16966;DHT22;8599;47.852;12.070;2023-12-07T05:56:18;2.00;99.90
16966;DHT22;8599;47.852;12.070;2023-12-07T05:58:45;1.90;99.90
16966;DHT22;8599;47.852;12.070;2023-12-07T06:01:12;1.90;99.90
16966;DHT22;8599;47.852;12.070;2023-12-07T06:03:40;1.90;99.90
16966;DHT22;8599;47.852;12.070;2023-12-07T06:06:07;1.90;99.90
16966;DHT22;8599;47.852;12.070;2023-12-07T06:08:37;1.90;99.90
16966;DHT22;8599;47.852;12.070;2023-12-07T06:11:05;2.00;99.90
16966;DHT22;8599;47.852;12.070;2023-12-07T06:13:32;2.00;99.90
16966;DHT22;8599;47.852;12.070;2023-12-07T06:15:59;2.00;99.90
16966;DHT22;8599;47.852;12.070;2023-12-07T06:18:26;1.90;99.90
16966;DHT22;8599;47.852;12.070;2023-12-07T06:20:53;1.90;99.90
16966;DHT22;8599;47.852;12.070;2023-12-07T06:23:20;1.90;99.90
16966;DHT22;8599;47.852;12.070;2023-12-07T06:25:47;1.90;99.90
16966;DHT22;8599;47.852;12.070;2023-12-07T06:28:16;1.90;99.90
16966;DHT22;8599;47.852;12.070;2023-12-07T06:30:43;1.80;99.90
16966;DHT22;8599;47.852;12.070;2023-12-07T06:33:10;1.90;99.90
16966;DHT22;8599;47.852;12.070;2023-12-07T06:35:37;1.80;99.90
16966;DHT22;8599;47.852;12.070;2023-12-07T06:38:04;1.80;99.90
16966;DHT22;8599;47.852;12.070;2023-12-07T06:40:31;1.70;99.90
16966;DHT22;8599;47.852;12.070;2023-12-07T06:42:58;1.70;99.90
16966;DHT22;8599;47.852;12.070;2023-12-07T06:45:26;1.60;99.90
16966;DHT22;8599;47.852;12.070;2023-12-07T06:47:53;1.60;99.90
16966;DHT22;8599;47.852;12.070;2023-12-07T06:50:20;1.60;99.90
16966;DHT22;8599;47.852;12.070;2023-12-07T06:52:47;1.60;99.90
16966;DHT22;8599;47.852;12.070;2023-12-07T06:55:14;1.50;99.90
16966;DHT22;8599;47.852;12.070;2023-12-07T06:57:41;1.50;99.90
16966;DHT22;8599;47.852;12.070;2023-12-07T07:00:08;1.50;99.90
16966;DHT22;8599;47.852;12.070;2023-12-07T07:02:37;1.50;99.90
16966;DHT22;8599;47.852;12.070;2023-12-07T07:05:05;1.50;99.90
16966;DHT22;8599;47.852;12.070;2023-12-07T07:07:32;1.50;99.90
16966;DHT22;8599;47.852;12.070;2023-12-07T07:09:59;1.40;99.90
16966;DHT22;8599;47.852;12.070;2023-12-07T07:12:26;1.40;99.90
16966;DHT22;8599;47.852;12.070;2023-12-07T07:14:53;1.40;99.90
16966;DHT22;8599;47.852;12.070;2023-12-07T07:17:20;1.40;99.90
16966;DHT22;8599;47.852;12.070;2023-12-07T07:19:48;1.30;99.90
16966;DHT22;8599;47.852;12.070;2023-12-07T07:22:15;1.50;99.90
16966;DHT22;8599;47.852;12.070;2023-12-07T07:24:42;1.40;99.90
16966;DHT22;8599;47.852;12.070;2023-12-07T07:27:09;1.30;99.90
16966;DHT22;8599;47.852;12.070;2023-12-07T07:29:36;1.30;99.90
16966;DHT22;8599;47.852;12.070;2023-12-07T07:32:04;1.30;99.90
16966;DHT22;8599;47.852;12.070;2023-12-07T07:34:31;1.30;99.90
16966;DHT22;8599;47.852;12.070;2023-12-07T07:37:00;1.30;99.90
16966;DHT22;8599;47.852;12.070;2023-12-07T07:39:27;1.40;99.90
16966;DHT22;8599;47.852;12.070;2023-12-07T07:41:54;1.40;99.90
16966;DHT22;8599;47.852;12.070;2023-12-07T07:44:20;1.40;99.90
16966;DHT22;8599;47.852;12.070;2023-12-07T07:46:47;1.40;99.90
16966;DHT22;8599;47.852;12.070;2023-12-07T07:49:14;1.40;99.90
16966;DHT22;8599;47.852;12.070;2023-12-07T07:51:41;1.40;99.90
16966;DHT22;8599;47.852;12.070;2023-12-07T07:54:09;1.40;99.90
16966;DHT22;8599;47.852;12.070;2023-12-07T07:56:36;1.40;99.90
16966;DHT22;8599;47.852;12.070;2023-12-07T07:59:03;1.40;99.90
16966;DHT22;8599;47.852;12.070;2023-12-07T08:01:30;1.40;99.90
16966;DHT22;8599;47.852;12.070;2023-12-07T08:03:57;1.50;99.90
16966;DHT22;8599;47.852;12.070;2023-12-07T08:06:24;1.40;99.90
16966;DHT22;8599;47.852;12.070;2023-12-07T08:08:53;1.40;99.90
16966;DHT22;8599;47.852;12.070;2023-12-07T08:11:21;1.50;99.90
16966;DHT22;8599;47.852;12.070;2023-12-07T08:13:47;1.50;99.90
16966;DHT22;8599;47.852;12.070;2023-12-07T08:16:15;1.60;99.90
16966;DHT22;8599;47.852;12.070;2023-12-07T08:18:42;1.60;99.90
16966;DHT22;8599;47.852;12.070;2023-12-07T08:21:13;1.60;99.90
16966;DHT22;8599;47.852;12.070;2023-12-07T08:23:44;1.70;99.90
16966;DHT22;8599;47.852;12.070;2023-12-07T08:26:11;1.70;99.90
16966;DHT22;8599;47.852;12.070;2023-12-07T08:28:41;1.70;99.90
16966;DHT22;8599;47.852;12.070;2023-12-07T08:31:08;1.60;99.90
16966;DHT22;8599;47.852;12.070;2023-12-07T08:33:35;1.60;99.90
16966;DHT22;8599;47.852;12.070;2023-12-07T08:36:04;1.60;99.90
16966;DHT22;8599;47.852;12.070;2023-12-07T08:38:31;1.70;99.90
16966;DHT22;8599;47.852;12.070;2023-12-07T08:40:58;1.80;99.90
16966;DHT22;8599;47.852;12.070;2023-12-07T08:43:25;1.80;99.90
16966;DHT22;8599;47.852;12.070;2023-12-07T08:45:55;1.90;99.90
16966;DHT22;8599;47.852;12.070;2023-12-07T08:48:22;2.00;99.90
16966;DHT22;8599;47.852;12.070;2023-12-07T08:50:49;2.00;99.90
16966;DHT22;8599;47.852;12.070;2023-12-07T08:53:16;2.10;99.90
16966;DHT22;8599;47.852;12.070;2023-12-07T08:55:43;2.10;99.90
16966;DHT22;8599;47.852;12.070;2023-12-07T08:58:10;2.20;99.90
16966;DHT22;8599;47.852;12.070;2023-12-07T09:00:38;2.20;99.90
16966;DHT22;8599;47.852;12.070;2023-12-07T09:03:06;2.30;99.90
16966;DHT22;8599;47.852;12.070;2023-12-07T09:05:33;2.30;99.90
16966;DHT22;8599;47.852;12.070;2023-12-07T09:08:00;2.30;99.90
16966;DHT22;8599;47.852;12.070;2023-12-07T09:10:27;2.40;99.90
16966;DHT22;8599;47.852;12.070;2023-12-07T09:12:54;2.40;99.90
16966;DHT22;8599;47.852;12.070;2023-12-07T09:15:21;2.40;99.90
16966;DHT22;8599;47.852;12.070;2023-12-07T09:17:48;2.40;99.90
16966;DHT22;8599;47.852;12.070;2023-12-07T09:20:16;2.50;99.90
16966;DHT22;8599;47.852;12.070;2023-12-07T09:22:44;2.50;99.90
16966;DHT22;8599;47.852;12.070;2023-12-07T09:25:11;2.50;99.90
16966;DHT22;8599;47.852;12.070;2023-12-07T09:27:39;2.60;99.90
16966;DHT22;8599;47.852;12.070;2023-12-07T09:30:07;2.60;99.90
16966;DHT22;8599;47.852;12.070;2023-12-07T09:32:36;2.60;99.90
16966;DHT22;8599;47.852;12.070;2023-12-07T09:35:04;2.60;99.90
16966;DHT22;8599;47.852;12.070;2023-12-07T09:37:34;2.60;99.90
16966;DHT22;8599;47.852;12.070;2023-12-07T09:40:01;2.60;99.90
16966;DHT22;8599;47.852;12.070;2023-12-07T09:42:30;2.60;99.90
16966;DHT22;8599;47.852;12.070;2023-12-07T09:44:57;2.60;99.90
16966;DHT22;8599;47.852;12.070;2023-12-07T09:47:25;2.60;99.90
16966;DHT22;8599;47.852;12.070;2023-12-07T09:49:52;2.70;99.90
16966;DHT22;8599;47.852;12.070;2023-12-07T09:52:21;2.80;99.90
16966;DHT22;8599;47.852;12.070;2023-12-07T09:54:50;2.80;99.90
16966;DHT22;8599;47.852;12.070;2023-12-07T09:57:18;2.80;99.90
16966;DHT22;8599;47.852;12.070;2023-12-07T09:59:45;2.80;99.90
16966;DHT22;8599;47.852;12.070;2023-12-07T10:02:13;2.90;99.90
16966;DHT22;8599;47.852;12.070;2023-12-07T10:04:40;2.90;99.90
16966;DHT22;8599;47.852;12.070;2023-12-07T10:07:07;2.90;99.90
16966;DHT22;8599;47.852;12.070;2023-12-07T10:09:34;2.90;99.90
16966;DHT22;8599;47.852;12.070;2023-12-07T10:12:05;2.90;99.90
16966;DHT22;8599;47.852;12.070;2023-12-07T10:14:33;3.00;99.90
16966;DHT22;8599;47.852;12.070;2023-12-07T10:17:00;3.00;99.90
16966;DHT22;8599;47.852;12.070;2023-12-07T10:19:27;3.00;99.90
16966;DHT22;8599;47.852;12.070;2023-12-07T10:21:54;3.00;99.90
16966;DHT22;8599;47.852;12.070;2023-12-07T10:24:22;3.10;99.90
16966;DHT22;8599;47.852;12.070;2023-12-07T10:26:50;3.10;99.90
16966;DHT22;8599;47.852;12.070;2023-12-07T10:29:19;3.10;99.90
16966;DHT22;8599;47.852;12.070;2023-12-07T10:31:48;3.10;99.90
16966;DHT22;8599;47.852;12.070;2023-12-07T10:34:18;3.20;99.90
16966;DHT22;8599;47.852;12.070;2023-12-07T10:36:46;3.30;99.90
16966;DHT22;8599;47.852;12.070;2023-12-07T10:39:13;3.40;99.90
16966;DHT22;8599;47.852;12.070;2023-12-07T10:41:43;3.30;99.90
16966;DHT22;8599;47.852;12.070;2023-12-07T10:44:13;3.30;99.90
16966;DHT22;8599;47.852;12.070;2023-12-07T10:46:42;3.30;99.90
16966;DHT22;8599;47.852;12.070;2023-12-07T10:49:17;3.30;99.90
16966;DHT22;8599;47.852;12.070;2023-12-07T10:51:51;3.30;99.90
16966;DHT22;8599;47.852;12.070;2023-12-07T10:54:22;3.30;99.90
16966;DHT22;8599;47.852;12.070;2023-12-07T10:56:51;3.40;99.90
16966;DHT22;8599;47.852;12.070;2023-12-07T10:59:19;3.40;99.90
16966;DHT22;8599;47.852;12.070;2023-12-07T11:01:48;3.50;99.90
16966;DHT22;8599;47.852;12.070;2023-12-07T11:04:15;3.50;99.90
16966;DHT22;8599;47.852;12.070;2023-12-07T11:06:46;3.50;99.90
16966;DHT22;8599;47.852;12.070;2023-12-07T11:09:19;3.50;99.90
16966;DHT22;8599;47.852;12.070;2023-12-07T11:11:51;3.60;99.90
16966;DHT22;8599;47.852;12.070;2023-12-07T11:14:19;3.80;99.90
16966;DHT22;8599;47.852;12.070;2023-12-07T11:16:48;3.80;99.90
16966;DHT22;8599;47.852;12.070;2023-12-07T11:19:43;3.80;99.90
16966;DHT22;8599;47.852;12.070;2023-12-07T11:22:11;3.80;99.90
16966;DHT22;8599;47.852;12.070;2023-12-07T11:24:52;3.80;99.90
16966;DHT22;8599;47.852;12.070;2023-12-07T11:27:19;3.80;99.90
16966;DHT22;8599;47.852;12.070;2023-12-07T11:29:46;3.90;99.90
16966;DHT22;8599;47.852;12.070;2023-12-07T11:32:15;4.00;99.90
16966;DHT22;8599;47.852;12.070;2023-12-07T11:34:43;4.10;99.90
16966;DHT22;8599;47.852;12.070;2023-12-07T11:37:11;4.20;99.90
16966;DHT22;8599;47.852;12.070;2023-12-07T11:39:39;4.20;99.90
16966;DHT22;8599;47.852;12.070;2023-12-07T11:42:09;4.20;99.90
16966;DHT22;8599;47.852;12.070;2023-12-07T11:44:38;4.30;99.90
16966;DHT22;8599;47.852;12.070;2023-12-07T11:47:05;4.30;99.90
16966;DHT22;8599;47.852;12.070;2023-12-07T11:49:33;4.40;99.90
16966;DHT22;8599;47.852;12.070;2023-12-07T11:52:00;4.40;99.90
16966;DHT22;8599;47.852;12.070;2023-12-07T11:54:27;4.50;99.90
16966;DHT22;8599;47.852;12.070;2023-12-07T11:56:54;4.50;99.90
16966;DHT22;8599;47.852;12.070;2023-12-07T11:59:21;4.50;99.90
16966;DHT22;8599;47.852;12.070;2023-12-07T12:01:51;4.60;99.90
16966;DHT22;8599;47.852;12.070;2023-12-07T12:04:18;4.60;99.90
16966;DHT22;8599;47.852;12.070;2023-12-07T12:06:46;4.60;99.90
16966;DHT22;8599;47.852;12.070;2023-12-07T12:09:13;4.60;99.90
16966;DHT22;8599;47.852;12.070;2023-12-07T12:11:44;4.60;99.90
16966;DHT22;8599;47.852;12.070;2023-12-07T12:14:13;4.60;99.90
16966;DHT22;8599;47.852;12.070;2023-12-07T12:16:40;4.70;99.90
16966;DHT22;8599;47.852;12.070;2023-12-07T12:19:08;4.90;99.90
16966;DHT22;8599;47.852;12.070;2023-12-07T12:21:35;5.00;99.90
16966;DHT22;8599;47.852;12.070;2023-12-07T12:24:06;5.10;99.90
16966;DHT22;8599;47.852;12.070;2023-12-07T12:26:34;5.00;99.90
16966;DHT22;8599;47.852;12.070;2023-12-07T12:29:01;4.80;99.90
16966;DHT22;8599;47.852;12.070;2023-12-07T12:31:28;4.90;99.90
16966;DHT22;8599;47.852;12.070;2023-12-07T12:33:55;5.00;99.90
16966;DHT22;8599;47.852;12.070;2023-12-07T12:36:22;5.10;99.90
16966;DHT22;8599;47.852;12.070;2023-12-07T12:38:52;5.20;99.90
16966;DHT22;8599;47.852;12.070;2023-12-07T12:41:21;5.30;99.90
16966;DHT22;8599;47.852;12.070;2023-12-07T12:43:49;5.30;99.90
16966;DHT22;8599;47.852;12.070;2023-12-07T12:46:16;5.40;99.90
16966;DHT22;8599;47.852;12.070;2023-12-07T12:48:53;5.60;99.90
16966;DHT22;8599;47.852;12.070;2023-12-07T12:51:23;5.90;99.90
16966;DHT22;8599;47.852;12.070;2023-12-07T12:53:51;6.30;99.90
16966;DHT22;8599;47.852;12.070;2023-12-07T12:56:19;6.60;99.90
16966;DHT22;8599;47.852;12.070;2023-12-07T12:58:48;6.70;99.90
16966;DHT22;8599;47.852;12.070;2023-12-07T13:01:15;7.10;99.90
16966;DHT22;8599;47.852;12.070;2023-12-07T13:03:43;7.60;99.90
16966;DHT22;8599;47.852;12.070;2023-12-07T13:06:11;8.10;99.90
16966;DHT22;8599;47.852;12.070;2023-12-07T13:08:39;8.40;99.90
16966;DHT22;8599;47.852;12.070;2023-12-07T13:11:06;8.20;99.90
16966;DHT22;8599;47.852;12.070;2023-12-07T13:13:34;7.90;99.90
16966;DHT22;8599;47.852;12.070;2023-12-07T13:16:02;7.40;99.90
16966;DHT22;8599;47.852;12.070;2023-12-07T13:18:29;7.10;99.90
16966;DHT22;8599;47.852;12.070;2023-12-07T13:20:57;6.90;99.90
16966;DHT22;8599;47.852;12.070;2023-12-07T13:23:25;6.50;99.90
16966;DHT22;8599;47.852;12.070;2023-12-07T13:25:52;6.30;99.90
16966;DHT22;8599;47.852;12.070;2023-12-07T13:28:19;6.10;99.90
16966;DHT22;8599;47.852;12.070;2023-12-07T13:30:47;5.90;99.90
16966;DHT22;8599;47.852;12.070;2023-12-07T13:33:16;6.00;99.90
16966;DHT22;8599;47.852;12.070;2023-12-07T13:35:43;5.90;99.90
16966;DHT22;8599;47.852;12.070;2023-12-07T13:38:10;5.90;99.90
16966;DHT22;8599;47.852;12.070;2023-12-07T13:40:37;5.90;99.90
16966;DHT22;8599;47.852;12.070;2023-12-07T13:43:04;5.70;99.90
16966;DHT22;8599;47.852;12.070;2023-12-07T13:45:32;5.70;99.90
16966;DHT22;8599;47.852;12.070;2023-12-07T13:47:59;5.70;99.90
16966;DHT22;8599;47.852;12.070;2023-12-07T13:50:27;5.80;99.90
16966;DHT22;8599;47.852;12.070;2023-12-07T13:52:54;5.90;99.90
16966;DHT22;8599;47.852;12.070;2023-12-07T13:55:21;5.90;99.90
16966;DHT22;8599;47.852;12.070;2023-12-07T13:57:49;5.90;99.90
16966;DHT22;8599;47.852;12.070;2023-12-07T14:00:18;5.80;99.90
16966;DHT22;8599;47.852;12.070;2023-12-07T14:02:45;5.70;99.90
16966;DHT22;8599;47.852;12.070;2023-12-07T14:05:12;5.60;99.90
16966;DHT22;8599;47.852;12.070;2023-12-07T14:07:40;5.50;99.90
16966;DHT22;8599;47.852;12.070;2023-12-07T14:10:07;5.50;99.90
16966;DHT22;8599;47.852;12.070;2023-12-07T14:12:34;5.40;99.90
16966;DHT22;8599;47.852;12.070;2023-12-07T14:15:01;5.40;99.90
16966;DHT22;8599;47.852;12.070;2023-12-07T14:17:28;5.50;99.90
16966;DHT22;8599;47.852;12.070;2023-12-07T14:20:02;5.40;99.90
16966;DHT22;8599;47.852;12.070;2023-12-07T14:22:30;5.30;99.90
16966;DHT22;8599;47.852;12.070;2023-12-07T14:24:58;5.30;99.90
16966;DHT22;8599;47.852;12.070;2023-12-07T14:27:26;5.20;99.90
16966;DHT22;8599;47.852;12.070;2023-12-07T14:29:53;4.90;99.90
16966;DHT22;8599;47.852;12.070;2023-12-07T14:32:20;4.70;99.90
16966;DHT22;8599;47.852;12.070;2023-12-07T14:34:47;4.50;99.90
16966;DHT22;8599;47.852;12.070;2023-12-07T14:37:13;4.40;99.90
16966;DHT22;8599;47.852;12.070;2023-12-07T14:39:40;4.30;99.90
16966;DHT22;8599;47.852;12.070;2023-12-07T14:42:09;4.20;99.90
16966;DHT22;8599;47.852;12.070;2023-12-07T14:44:37;4.00;99.90
16966;DHT22;8599;47.852;12.070;2023-12-07T14:47:04;3.90;99.90
16966;DHT22;8599;47.852;12.070;2023-12-07T14:49:31;3.80;99.90
16966;DHT22;8599;47.852;12.070;2023-12-07T14:51:58;3.70;99.90
16966;DHT22;8599;47.852;12.070;2023-12-07T14:54:26;3.50;99.90
16966;DHT22;8599;47.852;12.070;2023-12-07T14:56:53;3.50;99.90
16966;DHT22;8599;47.852;12.070;2023-12-07T14:59:23;3.40;99.90
16966;DHT22;8599;47.852;12.070;2023-12-07T15:01:50;3.30;99.90
16966;DHT22;8599;47.852;12.070;2023-12-07T15:04:17;3.30;99.90
16966;DHT22;8599;47.852;12.070;2023-12-07T15:06:44;3.20;99.90
16966;DHT22;8599;47.852;12.070;2023-12-07T15:09:12;3.20;99.90
16966;DHT22;8599;47.852;12.070;2023-12-07T15:11:40;3.10;99.90
16966;DHT22;8599;47.852;12.070;2023-12-07T15:14:07;3.10;99.90
16966;DHT22;8599;47.852;12.070;2023-12-07T15:16:37;3.00;99.90
16966;DHT22;8599;47.852;12.070;2023-12-07T15:19:03;3.00;99.90
16966;DHT22;8599;47.852;12.070;2023-12-07T15:21:30;2.90;99.90
16966;DHT22;8599;47.852;12.070;2023-12-07T15:23:58;2.80;99.90
16966;DHT22;8599;47.852;12.070;2023-12-07T15:26:25;2.80;99.90
16966;DHT22;8599;47.852;12.070;2023-12-07T15:28:52;2.60;99.90
16966;DHT22;8599;47.852;12.070;2023-12-07T15:31:19;2.60;99.90
16966;DHT22;8599;47.852;12.070;2023-12-07T15:33:47;2.50;99.90
16966;DHT22;8599;47.852;12.070;2023-12-07T15:36:14;2.40;99.90
16966;DHT22;8599;47.852;12.070;2023-12-07T15:38:40;2.30;99.90
16966;DHT22;8599;47.852;12.070;2023-12-07T15:41:08;2.20;99.90
16966;DHT22;8599;47.852;12.070;2023-12-07T15:43:35;2.20;99.90
16966;DHT22;8599;47.852;12.070;2023-12-07T15:46:01;1.90;99.90
16966;DHT22;8599;47.852;12.070;2023-12-07T15:48:29;1.90;99.90